Time;durP1;ratioP1;P1;durP2;ratioP2;P2;SDS_P1;SDS_P2;PMS_P1;PMS_P2;Temp;Humidity;BMP_temperature;BMP_pressure;BME280_temperature;BME280_humidity;BME280_pressure;Samples;Min_cycle;Max_cycle;Signal;HPM_P1;HPM_P2
2022/06/06 00:02:23;;;;;;;3.40;3.20;;;;;;;19.19;68.95;101037.69;4936537;28;102578;-83
2022/06/06 00:04:50;;;;;;;3.25;3.05;;;;;;;19.18;68.89;101036.03;4933415;28;103043;-83
2022/06/06 00:07:18;;;;;;;3.60;3.30;;;;;;;19.18;68.86;101047.06;4935296;28;102244;-83
2022/06/06 00:09:45;;;;;;;6.73;3.60;;;;;;;19.18;68.69;101047.06;4934469;28;102399;-83
2022/06/06 00:12:12;;;;;;;4.00;3.20;;;;;;;19.19;68.92;101043.19;4936293;28;102223;-84
2022/06/06 00:14:48;;;;;;;3.50;3.30;;;;;;;19.18;68.87;101044.31;4934389;28;103857;-84
2022/06/06 00:17:15;;;;;;;3.60;3.30;;;;;;;19.17;68.66;101035.22;4934711;28;102256;-83
2022/06/06 00:19:41;;;;;;;3.42;3.15;;;;;;;19.18;69.11;101030.50;4934183;28;102399;-83
2022/06/06 00:22:08;;;;;;;3.70;3.40;;;;;;;19.17;68.95;101024.19;4936575;28;102689;-84
2022/06/06 00:24:36;;;;;;;3.50;3.20;;;;;;;19.18;68.71;101036.03;4933580;28;104104;-84
2022/06/06 00:27:04;;;;;;;4.10;3.80;;;;;;;19.18;68.80;101025.00;4935098;28;102701;-83
2022/06/06 00:29:35;;;;;;;3.20;3.00;;;;;;;19.18;69.29;101022.25;4934813;28;102284;-83
2022/06/06 00:34:54;;;;;;;3.70;3.40;;;;;;;19.18;68.87;101013.97;4932303;28;103411;-83
2022/06/06 00:37:24;;;;;;;3.85;3.55;;;;;;;19.18;68.98;101011.22;4924054;28;104434;-83
2022/06/06 00:39:52;;;;;;;3.10;2.90;;;;;;;19.18;68.90;101000.16;4933812;28;102582;-84
2022/06/06 00:42:23;;;;;;;3.50;3.20;;;;;;;19.17;69.19;100998.56;4934392;28;102291;-83
2022/06/06 00:45:22;;;;;;;3.75;3.45;;;;;;;19.17;69.12;100996.59;4934086;28;104173;-83
2022/06/06 00:47:54;;;;;;;3.17;2.95;;;;;;;19.17;68.79;100995.78;4932988;28;102526;-83
2022/06/06 00:50:25;;;;;;;3.20;3.00;;;;;;;19.17;68.79;100990.28;4934009;28;102323;-83
2022/06/06 00:52:53;;;;;;;3.33;3.13;;;;;;;19.16;68.98;100989.47;4935514;28;102587;-83
2022/06/06 00:55:25;;;;;;;3.75;3.45;;;;;;;19.17;68.73;100995.78;4933010;28;103869;-83
2022/06/06 00:57:56;;;;;;;3.70;3.40;;;;;;;19.17;68.88;100993.03;4933100;28;102428;-83
2022/06/06 01:00:23;;;;;;;3.50;3.30;;;;;;;19.17;68.85;100995.78;4934123;28;102482;-83
2022/06/06 01:02:53;;;;;;;3.67;3.40;;;;;;;19.16;68.86;101000.50;4935304;28;102620;-83
2022/06/06 01:05:21;;;;;;;4.15;3.33;;;;;;;19.16;68.68;100995.00;4933638;28;103987;-83
2022/06/06 01:07:48;;;;;;;3.40;3.10;;;;;;;19.17;68.74;100995.78;4931751;28;102181;-83
2022/06/06 01:10:16;;;;;;;3.70;3.40;;;;;;;19.17;68.81;100995.78;4932389;28;102896;-83
2022/06/06 01:12:56;;;;;;;3.30;3.10;;;;;;;19.16;68.81;101000.50;4934213;28;102404;-83
2022/06/06 01:15:27;;;;;;;3.88;3.58;;;;;;;19.17;68.85;100995.78;4932122;28;103942;-83
2022/06/06 01:18:05;;;;;;;3.63;3.33;;;;;;;19.16;68.65;100994.19;4936772;28;103031;-83
2022/06/06 01:20:57;;;;;;;3.25;2.90;;;;;;;19.15;68.58;100987.03;4937494;28;102110;-82
2022/06/06 01:23:48;;;;;;;4.53;3.10;;;;;;;19.16;68.61;100988.66;4937748;28;102075;-84
2022/06/06 01:26:31;;;;;;;4.65;3.30;;;;;;;19.16;68.70;100983.13;4930439;28;108382;-83
2022/06/06 01:29:05;;;;;;;3.05;2.80;;;;;;;19.15;68.77;100981.53;4928459;28;102280;-83
2022/06/06 01:31:38;;;;;;;3.45;3.20;;;;;;;19.16;68.75;100995.00;4936891;28;102445;-83
2022/06/06 01:34:07;;;;;;;3.97;3.67;;;;;;;19.17;68.49;100995.78;4938127;28;101980;-83
2022/06/06 01:36:35;;;;;;;3.67;3.38;;;;;;;19.16;68.94;100988.66;4930114;28;103720;-83
2022/06/06 01:39:06;;;;;;;3.60;3.30;;;;;;;19.16;68.58;100988.66;4934996;28;102315;-83
2022/06/06 01:41:44;;;;;;;3.63;3.35;;;;;;;19.16;68.93;100983.13;4936848;28;102712;-83
2022/06/06 01:44:20;;;;;;;3.78;3.47;;;;;;;19.15;68.32;100979.56;4936290;28;102259;-83
2022/06/06 01:46:47;;;;;;;3.78;3.47;;;;;;;19.16;68.70;100977.63;4936766;28;103931;-83
2022/06/06 01:49:15;;;;;;;3.55;3.20;;;;;;;19.15;68.94;100987.03;4934880;28;102239;-83
2022/06/06 01:51:42;;;;;;;3.58;3.38;;;;;;;19.16;68.63;100986.72;4935124;28;102561;-83
2022/06/06 01:54:09;;;;;;;3.75;3.30;;;;;;;19.15;68.58;100984.28;4936769;28;102615;-83
2022/06/06 01:56:41;;;;;;;3.72;3.42;;;;;;;19.15;68.79;100984.28;4935866;28;104040;-83
2022/06/06 01:59:07;;;;;;;3.60;3.30;;;;;;;19.15;68.31;100971.31;4936728;28;102486;-83
2022/06/06 02:01:35;;;;;;;3.47;3.15;;;;;;;19.15;69.02;100976.81;4935380;28;102371;-83
2022/06/06 02:04:04;;;;;;;3.70;3.40;;;;;;;19.14;68.37;100977.13;4936432;28;102597;-83
2022/06/06 02:06:30;;;;;;;3.53;3.22;;;;;;;19.15;68.51;100982.34;4934351;28;104550;-83
2022/06/06 02:08:57;;;;;;;3.58;3.28;;;;;;;19.14;68.75;100974.38;4936122;28;102163;-83
2022/06/06 02:11:25;;;;;;;3.55;3.25;;;;;;;19.15;68.79;100964.97;4935730;28;101929;-82
2022/06/06 02:13:51;;;;;;;3.47;3.13;;;;;;;19.15;68.83;100976.00;4935749;28;102283;-81
2022/06/06 02:16:19;;;;;;;3.75;3.40;;;;;;;19.14;68.40;100964.13;4935020;28;104136;-82
2022/06/06 02:18:49;;;;;;;5.38;3.58;;;;;;;19.14;68.24;100966.09;4936661;28;102475;-83
2022/06/06 02:21:16;;;;;;;3.53;3.22;;;;;;;19.14;68.51;100968.84;4935077;28;102511;-83
2022/06/06 02:23:43;;;;;;;3.42;3.15;;;;;;;19.14;68.48;100979.88;4935104;28;102192;-83
2022/06/06 02:26:10;;;;;;;3.35;3.10;;;;;;;19.15;68.40;100984.28;4935238;28;104133;-83
2022/06/06 02:28:38;;;;;;;3.45;3.25;;;;;;;19.15;68.56;100992.56;4934862;28;102442;-83
2022/06/06 02:31:06;;;;;;;;;;;;;;;19.15;68.17;100992.56;4935753;28;102249;-83
2022/06/06 02:33:33;;;;;;;3.60;3.20;;;;;;;19.15;68.82;100987.03;4934739;28;102232;-83
2022/06/06 02:36:01;;;;;;;3.25;3.05;;;;;;;19.13;68.57;100984.59;4934926;28;103880;-83
2022/06/06 02:38:32;;;;;;;3.58;3.28;;;;;;;19.14;68.06;100990.91;4935326;28;102630;-82
2022/06/06 02:41:07;;;;;;;3.35;3.15;;;;;;;19.13;68.70;100978.28;4934953;28;102440;-83
2022/06/06 02:43:36;;;;;;;3.55;3.25;;;;;;;19.13;68.38;100981.84;4935400;28;102545;-83
2022/06/06 02:46:03;;;;;;;3.55;3.25;;;;;;;19.14;68.43;100990.91;4915535;28;104132;-83
2022/06/06 02:48:30;;;;;;;4.07;3.35;;;;;;;19.14;67.93;100985.41;4935321;28;102323;-83
2022/06/06 02:50:57;;;;;;;3.75;3.45;;;;;;;19.14;68.39;100996.44;4934891;28;102208;-83
2022/06/06 02:53:25;;;;;;;3.55;3.25;;;;;;;19.14;68.17;101007.47;4935963;28;102213;-83
2022/06/06 02:55:52;;;;;;;3.70;3.40;;;;;;;19.14;68.62;101007.47;4931306;28;104068;-83
2022/06/06 02:58:20;;;;;;;4.22;2.70;;;;;;;19.13;68.13;101011.38;4935133;28;102515;-84
2022/06/06 03:00:47;;;;;;;3.60;3.35;;;;;;;19.13;68.39;101016.88;4934478;28;102576;-83
2022/06/06 03:03:14;;;;;;;3.35;3.05;;;;;;;19.14;68.50;101018.50;4936405;28;102180;-84
2022/06/06 03:05:53;;;;;;;3.50;3.20;;;;;;;19.13;68.08;101014.94;4934127;28;103935;-84
2022/06/06 03:08:39;;;;;;;3.40;3.20;;;;;;;19.14;68.10;101018.50;4933947;28;102108;-84
2022/06/06 03:11:18;;;;;;;3.35;3.05;;;;;;;19.14;68.27;101018.50;4934382;28;102499;-84
2022/06/06 03:14:05;;;;;;;4.05;3.20;;;;;;;19.14;68.63;101013.00;4934939;28;102103;-84
2022/06/06 03:22:58;;;;;;;3.92;3.28;;;;;;;19.13;68.36;101006.66;4916000;28;102592;-83
2022/06/06 03:25:36;;;;;;;3.20;3.00;;;;;;;19.13;68.62;101005.84;4925058;28;102663;-83
2022/06/06 03:28:11;;;;;;;4.50;2.90;;;;;;;19.14;68.01;101007.47;4931866;28;104068;-83
2022/06/06 03:30:51;;;;;;;3.30;3.00;;;;;;;19.13;68.29;101011.38;4933443;28;102196;-83
2022/06/06 03:33:22;;;;;;;;;;;;;;;19.13;68.44;101008.63;4933900;28;102233;-83
2022/06/06 03:35:56;;;;;;;3.05;2.85;;;;;;;19.14;68.45;101021.25;4933419;28;102316;-83
2022/06/06 03:38:31;;;;;;;3.35;3.10;;;;;;;19.13;68.38;101016.88;4934071;28;103764;-83
2022/06/06 03:41:06;;;;;;;3.20;2.97;;;;;;;19.13;68.19;101014.94;4930456;28;102448;-84
2022/06/06 03:43:41;;;;;;;3.67;3.03;;;;;;;19.13;68.11;101016.88;4934488;28;102092;-84
2022/06/06 03:46:21;;;;;;;3.10;2.90;;;;;;;19.13;67.94;101016.88;4933285;28;102409;-84
2022/06/06 03:49:00;;;;;;;3.20;2.90;;;;;;;19.13;68.80;101014.13;4933857;28;108024;-84
2022/06/06 03:51:36;;;;;;;3.22;2.97;;;;;;;19.12;67.71;101015.28;4922474;28;102471;-84
2022/06/06 03:54:20;;;;;;;3.20;3.00;;;;;;;19.13;68.49;101014.13;4932762;28;102378;-83
2022/06/06 03:57:01;;;;;;;4.32;3.40;;;;;;;19.12;68.06;101012.50;4933844;28;102845;-83
2022/06/06 03:59:29;;;;;;;2.95;2.75;;;;;;;19.11;68.13;101008.94;4935000;28;103972;-83
2022/06/06 04:01:59;;;;;;;3.40;3.10;;;;;;;19.11;68.08;101008.09;4933198;28;102049;-83
2022/06/06 04:04:28;;;;;;;3.83;3.10;;;;;;;19.12;67.99;101009.75;4934013;28;103143;-84
2022/06/06 04:06:57;;;;;;;3.10;2.90;;;;;;;19.12;68.04;101010.56;4934469;28;102155;-84
2022/06/06 04:09:24;;;;;;;;;;;;;;;19.13;68.01;101005.84;4934599;28;103871;-84
2022/06/06 04:12:01;;;;;;;3.92;3.08;;;;;;;19.12;67.78;101005.03;4931461;28;102352;-83
2022/06/06 04:14:38;;;;;;;3.50;3.20;;;;;;;19.12;68.19;101012.50;4927285;28;102138;-84
2022/06/06 04:17:21;;;;;;;3.38;3.08;;;;;;;19.12;67.98;101015.28;4935261;28;102676;-84
2022/06/06 04:19:59;;;;;;;3.83;2.70;;;;;;;19.11;67.78;101011.72;4932992;28;104394;-84
2022/06/06 04:22:36;;;;;;;2.70;2.50;;;;;;;19.11;67.70;101013.63;4933951;28;102140;-83
2022/06/06 04:25:13;;;;;;;3.92;3.45;;;;;;;19.12;67.70;101020.78;4933264;28;102261;-83
2022/06/06 04:27:48;;;;;;;3.63;2.80;;;;;;;19.11;68.05;101031.00;4934726;28;102580;-82
2022/06/06 04:30:22;;;;;;;3.63;3.33;;;;;;;19.12;67.74;101026.31;4932147;28;104034;-83
2022/06/06 04:33:03;;;;;;;2.97;2.72;;;;;;;19.11;67.37;101025.50;4934863;28;102521;-83
2022/06/06 04:35:40;;;;;;;3.22;2.85;;;;;;;19.10;68.18;101023.84;4933943;28;102107;-82
2022/06/06 04:38:16;;;;;;;2.95;2.75;;;;;;;19.12;67.99;101020.78;4934906;28;102199;-83
2022/06/06 04:40:50;;;;;;;3.20;3.00;;;;;;;19.11;67.57;101014.47;4931906;28;103915;-83
2022/06/06 04:43:27;;;;;;;2.80;2.60;;;;;;;19.11;67.85;101019.16;4935119;28;101936;-83
2022/06/06 04:46:01;;;;;;;4.32;3.03;;;;;;;19.12;68.56;101029.06;4932084;28;102265;-83
2022/06/06 04:48:27;;;;;;;3.28;2.97;;;;;;;19.12;67.75;101032.63;4933437;28;102222;-82
2022/06/06 04:50:55;;;;;;;3.20;2.92;;;;;;;19.12;67.75;101029.06;4933745;28;103915;-83
2022/06/06 04:53:23;;;;;;;3.78;3.30;;;;;;;19.11;67.62;101022.75;4938242;28;102328;-82
2022/06/06 04:55:53;;;;;;;3.10;2.90;;;;;;;19.11;67.80;101024.66;4937213;28;102642;-82
2022/06/06 04:58:26;;;;;;;2.75;2.55;;;;;;;19.11;68.46;101031.00;4939359;28;102990;-82
2022/06/06 05:00:52;;;;;;;2.97;2.67;;;;;;;19.10;67.65;101023.84;4934962;28;103858;-82
2022/06/06 05:03:19;;;;;;;3.42;2.80;;;;;;;19.12;67.88;101029.06;4937049;28;102576;-83
2022/06/06 05:05:57;;;;;;;3.08;2.80;;;;;;;19.11;67.60;101035.69;4934805;28;102345;-82
2022/06/06 05:08:34;;;;;;;;;;;;;;;19.12;68.41;101026.31;4931042;28;102320;-83
2022/06/06 05:11:25;;;;;;;3.05;2.75;;;;;;;19.12;68.42;101031.81;4924379;28;107944;-83
2022/06/06 05:14:18;;;;;;;2.97;2.78;;;;;;;19.11;68.16;101025.50;4941172;28;102205;-84
2022/06/06 05:17:04;;;;;;;2.80;2.58;;;;;;;19.11;68.02;101024.66;4936359;28;102925;-84
2022/06/06 05:19:46;;;;;;;5.38;2.80;;;;;;;19.12;67.40;101021.59;4941102;28;102991;-84
2022/06/06 05:22:34;;;;;;;5.60;2.90;;;;;;;19.13;67.78;101025.97;4934217;28;103905;-83
2022/06/06 05:25:25;;;;;;;4.88;3.15;;;;;;;19.14;67.14;101037.81;4936359;28;102753;-83
2022/06/06 05:28:09;;;;;;;3.80;2.70;;;;;;;19.16;67.17;101038.31;4934616;28;103005;-84
2022/06/06 05:30:48;;;;;;;2.72;2.53;;;;;;;19.16;66.92;101043.84;4937649;28;102169;-84
2022/06/06 05:33:19;;;;;;;4.53;3.08;;;;;;;19.18;66.58;101047.06;4935836;28;103837;-84
2022/06/06 05:36:09;;;;;;;3.13;2.88;;;;;;;19.19;67.84;101059.75;4938003;28;102448;-84
2022/06/06 05:39:07;;;;;;;2.92;2.72;;;;;;;19.19;67.58;101054.25;4937249;28;102295;-84
2022/06/06 05:41:54;;;;;;;3.42;2.70;;;;;;;19.21;66.40;101057.47;4929781;28;102458;-84
2022/06/06 05:44:33;;;;;;;3.92;2.90;;;;;;;19.22;67.42;101050.81;4936749;28;104087;-84
2022/06/06 05:47:11;;;;;;;3.10;2.78;;;;;;;19.20;67.70;101062.19;4936429;28;104590;-84
2022/06/06 05:49:54;;;;;;;3.28;2.92;;;;;;;19.21;66.93;101063.00;4942848;28;102187;-84
2022/06/06 05:52:42;;;;;;;3.67;3.38;;;;;;;19.19;67.27;101070.78;4939008;28;102493;-84
2022/06/06 05:55:25;;;;;;;3.53;2.78;;;;;;;19.20;66.57;101072.41;4929433;28;104104;-84
2022/06/06 05:58:08;;;;;;;3.45;2.90;;;;;;;19.20;66.86;101077.94;4942110;28;102763;-84
2022/06/06 06:00:46;;;;;;;3.13;2.92;;;;;;;19.19;66.97;101070.78;4939161;28;103270;-84
2022/06/06 06:03:55;;;;;;;3.17;2.88;;;;;;;19.19;67.13;101068.03;4935526;28;102045;-83
2022/06/06 06:06:32;;;;;;;3.33;2.95;;;;;;;19.19;66.84;101076.31;4932461;28;103878;-84
2022/06/06 06:09:14;;;;;;;3.30;2.83;;;;;;;19.19;67.14;101076.31;4934917;28;102715;-83
2022/06/06 06:11:57;;;;;;;3.33;2.78;;;;;;;19.19;66.99;101081.81;4947798;28;102304;-83
2022/06/06 06:14:37;;;;;;;2.92;2.70;;;;;;;19.20;66.94;101094.47;4935346;28;102401;-83
2022/06/06 06:17:06;;;;;;;3.40;3.10;;;;;;;19.19;67.30;101103.91;4930013;28;104144;-83
2022/06/06 06:19:39;;;;;;;5.05;3.08;;;;;;;19.18;67.29;101097.53;4937251;28;102897;-84
2022/06/06 06:22:08;;;;;;;3.78;3.30;;;;;;;19.19;66.95;101098.38;4936471;28;102343;-83
2022/06/06 06:24:37;;;;;;;3.35;3.05;;;;;;;19.18;67.21;101093.97;4935863;28;103718;-83
2022/06/06 06:27:06;;;;;;;6.47;3.17;;;;;;;19.18;66.73;101092.03;4936274;28;103837;-83
2022/06/06 06:29:33;;;;;;;3.30;3.00;;;;;;;19.19;67.07;101098.38;4937852;28;102592;-83
2022/06/06 06:32:18;;;;;;;3.55;3.25;;;;;;;19.18;67.02;101088.47;4924871;28;102553;-83
2022/06/06 06:35:02;;;;;;;2.85;2.65;;;;;;;19.17;67.10;101093.16;4935166;28;102365;-83
2022/06/06 06:38:03;;;;;;;3.97;2.80;;;;;;;19.18;67.31;101088.47;4931285;28;103816;-83
2022/06/06 06:40:52;;;;;;;3.13;2.83;;;;;;;19.18;66.60;101085.69;4934259;28;102351;-83
2022/06/06 06:43:33;;;;;;;3.60;3.30;;;;;;;19.18;67.51;101091.22;4935362;28;102169;-83
2022/06/06 06:46:05;;;;;;;2.83;2.63;;;;;;;19.18;67.06;101091.22;4937757;28;102156;-83
2022/06/06 06:48:37;;;;;;;3.15;2.95;;;;;;;19.19;67.33;101081.81;4935346;28;103812;-84
2022/06/06 06:51:11;;;;;;;3.00;2.78;;;;;;;19.18;66.91;101081.00;4935739;28;102696;-84
2022/06/06 06:53:54;;;;;;;3.50;3.20;;;;;;;19.19;67.28;101081.81;4936043;28;102175;-84
2022/06/06 06:56:46;;;;;;;3.10;2.90;;;;;;;19.18;66.96;101085.69;4934660;28;102105;-84
2022/06/06 06:59:23;;;;;;;3.80;3.08;;;;;;;19.18;67.00;101092.03;4934193;28;104921;-85
2022/06/06 07:10:56;;;;;;;4.80;3.20;;;;;;;19.19;67.48;101090.09;4925156;28;103904;-85
2022/06/06 07:13:38;;;;;;;4.22;3.60;;;;;;;19.19;68.02;101099.19;4935174;28;102621;-85
2022/06/06 07:16:15;;;;;;;2.85;2.65;;;;;;;19.20;68.09;101100.00;4935772;28;102170;-85
2022/06/06 07:18:42;;;;;;;4.75;3.28;;;;;;;19.19;67.58;101092.88;4936753;28;102755;-88
2022/06/06 07:21:12;;;;;;;3.40;3.10;;;;;;;19.19;67.48;101092.88;4934947;28;104075;-84
2022/06/06 07:23:41;;;;;;;4.40;3.22;;;;;;;19.20;67.78;101094.47;4936268;28;102203;-85
2022/06/06 07:26:10;;;;;;;4.00;3.25;;;;;;;19.19;67.64;101090.91;4934882;28;102207;-84
2022/06/06 07:28:37;;;;;;;3.45;3.15;;;;;;;19.20;67.67;101100.81;4935847;28;102267;-84
2022/06/06 07:31:16;;;;;;;3.80;2.97;;;;;;;19.19;68.39;101101.13;4934622;28;103892;-84
2022/06/06 07:34:14;;;;;;;4.23;3.23;;;;;;;19.18;68.34;101105.81;4933643;28;104076;-86
2022/06/06 07:36:58;;;;;;;3.77;3.27;;;;;;;19.19;69.02;101106.66;4933732;28;102811;-83
2022/06/06 07:39:36;;;;;;;4.28;2.90;;;;;;;19.19;68.64;101096.44;4936426;28;102558;-82
2022/06/06 07:42:22;;;;;;;3.50;3.08;;;;;;;19.19;68.17;101103.91;4934870;28;103817;-84
2022/06/06 07:45:06;;;;;;;3.38;3.08;;;;;;;19.20;68.45;101111.84;4934547;28;102514;-85
2022/06/06 07:47:46;;;;;;;3.45;3.15;;;;;;;19.20;68.71;101113.78;4934635;28;102299;-84
2022/06/06 07:50:18;;;;;;;3.13;2.92;;;;;;;19.19;68.50;101110.22;4931377;28;102423;-85
2022/06/06 07:52:53;;;;;;;4.15;3.10;;;;;;;19.20;69.03;101122.88;4933365;28;103920;-85
2022/06/06 07:55:25;;;;;;;3.00;2.80;;;;;;;19.21;68.81;101112.66;4933918;28;102338;-85
2022/06/06 07:58:08;;;;;;;3.45;3.15;;;;;;;19.20;68.82;101116.56;4934515;28;102721;-85
2022/06/06 08:00:35;;;;;;;3.53;3.22;;;;;;;19.20;68.62;101124.81;4926245;28;102106;-87
2022/06/06 08:03:14;;;;;;;3.42;3.00;;;;;;;19.21;69.00;101126.44;4934964;28;104045;-87
2022/06/06 08:05:55;;;;;;;;;;;;;;;19.21;68.67;101130.00;4927600;28;102096;-86
2022/06/06 08:08:35;;;;;;;3.90;3.58;;;;;;;19.20;68.76;101127.59;4933422;28;102328;-86
2022/06/06 08:11:09;;;;;;;3.67;3.38;;;;;;;19.20;68.76;101130.34;4924488;28;102860;-86
2022/06/06 08:13:48;;;;;;;3.22;3.00;;;;;;;19.21;68.96;101129.22;4934652;28;104018;-86
2022/06/06 08:16:33;;;;;;;3.42;3.15;;;;;;;19.21;69.05;101123.69;4932669;28;104023;-86
2022/06/06 08:19:34;;;;;;;3.65;3.20;;;;;;;19.21;68.81;101134.72;4927048;28;102544;-85
2022/06/06 08:22:01;;;;;;;3.60;3.30;;;;;;;19.23;68.51;101132.47;4930651;28;102368;-86
2022/06/06 08:24:32;;;;;;;4.65;3.20;;;;;;;19.21;68.99;101130.00;4931375;28;104098;-87
2022/06/06 08:27:03;;;;;;;3.72;3.30;;;;;;;19.22;68.95;101133.59;4933177;28;102084;-86
2022/06/06 08:29:35;;;;;;;4.15;3.50;;;;;;;19.21;68.99;101123.69;4932359;28;102972;-87
2022/06/06 08:32:02;;;;;;;3.75;3.38;;;;;;;19.21;68.71;101124.50;4935229;28;102452;-87
2022/06/06 08:34:28;;;;;;;3.50;3.17;;;;;;;19.22;68.72;101125.31;4930832;28;102963;-84
2022/06/06 08:37:32;;;;;;;3.53;3.20;;;;;;;19.22;68.74;101125.31;4932023;28;102275;-87
2022/06/06 08:40:19;;;;;;;4.03;2.90;;;;;;;19.22;68.54;101130.81;4925642;28;102050;-87
2022/06/06 08:43:00;;;;;;;3.83;3.53;;;;;;;19.22;68.56;101133.59;4947708;28;104112;-85
2022/06/06 08:48:38;;;;;;;3.65;3.35;;;;;;;19.23;68.49;101128.91;5020223;27;103684;-53
2022/06/06 08:51:23;;;;;;;3.42;3.13;;;;;;;19.24;68.67;101125.00;4998392;28;102245;-54
2022/06/06 08:54:21;;;;;;;3.25;3.05;;;;;;;19.24;68.78;101128.56;5008429;28;104260;-53
2022/06/06 08:57:09;;;;;;;3.75;3.45;;;;;;;19.22;68.78;101130.81;5000705;28;102485;-53
2022/06/06 08:59:55;;;;;;;;;;;;;;;19.23;68.87;101143.50;5009824;27;102224;-53
2022/06/06 09:02:59;;;;;;;3.38;3.17;;;;;;;19.24;68.57;101145.13;5010111;27;102183;-53
2022/06/06 09:05:56;;;;;;;4.32;3.30;;;;;;;19.23;68.67;101143.50;5008712;28;108245;-54
2022/06/06 09:09:04;;;;;;;3.38;3.08;;;;;;;19.23;68.60;101143.50;5008292;28;102168;-54
2022/06/06 09:11:46;;;;;;;;;;;;;;;19.24;68.57;101145.13;5008212;28;102552;-55
2022/06/06 09:14:31;;;;;;;4.15;3.30;;;;;;;19.24;68.58;101145.13;5001861;28;102608;-55
2022/06/06 09:17:43;;;;;;;3.30;3.00;;;;;;;19.24;68.90;101144.31;5000245;28;103876;-55
2022/06/06 09:20:44;;;;;;;3.47;3.05;;;;;;;19.25;68.80;101157.78;4986880;28;102730;-55
2022/06/06 09:23:45;;;;;;;3.40;3.15;;;;;;;19.24;68.81;101152.59;5008455;28;102509;-55
2022/06/06 09:26:28;;;;;;;3.38;3.08;;;;;;;19.23;68.66;101157.31;4949172;28;102067;-55
2022/06/06 09:29:29;;;;;;;4.63;3.22;;;;;;;19.24;68.78;101152.59;4995811;27;103995;-56
2022/06/06 09:32:49;;;;;;;3.30;3.10;;;;;;;19.24;68.43;101147.88;4991113;28;102456;-55
2022/06/06 09:35:39;;;;;;;3.40;3.10;;;;;;;19.24;68.68;101150.66;4998437;28;102180;-54
2022/06/06 09:38:14;;;;;;;4.22;3.25;;;;;;;19.24;68.71;101142.38;5002647;28;102513;-55
2022/06/06 09:41:06;;;;;;;3.67;3.38;;;;;;;19.22;68.70;101130.81;4999012;28;103696;-55
2022/06/06 09:43:54;;;;;;;3.88;3.10;;;;;;;19.23;68.57;101142.69;5011251;27;102133;-55
2022/06/06 09:46:53;;;;;;;4.33;2.97;;;;;;;19.23;68.65;101143.50;5004471;28;102205;-55
2022/06/06 09:49:58;;;;;;;3.30;3.00;;;;;;;19.22;68.75;101136.34;4995623;28;103491;-55
2022/06/06 09:53:04;;;;;;;4.97;4.20;;;;;;;19.21;68.75;101129.22;4993744;28;103950;-55
2022/06/06 09:59:17;;;;;;;3.55;3.33;;;;;;;19.24;68.86;101134.09;4969762;28;102199;-55
2022/06/06 10:02:21;;;;;;;3.97;3.60;;;;;;;19.25;68.79;101132.13;4991705;28;102118;-55
2022/06/06 10:05:18;;;;;;;3.72;3.10;;;;;;;19.24;68.70;101130.53;4988919;28;103914;-55
2022/06/06 10:08:37;;;;;;;3.63;3.33;;;;;;;19.24;68.52;101125.81;4986600;28;104236;-55
2022/06/06 10:11:41;;;;;;;3.47;3.20;;;;;;;19.24;68.71;101128.56;4986388;28;102405;-55
2022/06/06 10:14:30;;;;;;;3.95;3.40;;;;;;;19.24;68.61;101122.25;4993816;28;104121;-56
2022/06/06 10:17:15;;;;;;;3.83;3.50;;;;;;;19.24;68.58;101128.56;4992913;28;103928;-55
2022/06/06 10:20:05;;;;;;;3.30;3.10;;;;;;;19.24;68.66;101128.56;4988779;28;103748;-55
2022/06/06 10:23:00;;;;;;;3.33;3.10;;;;;;;19.24;68.66;101117.53;4978792;28;102482;-55
2022/06/06 10:25:57;;;;;;;3.42;3.22;;;;;;;19.24;68.74;101120.28;4983459;28;102722;-55
2022/06/06 10:28:49;;;;;;;3.10;2.90;;;;;;;19.25;68.79;101118.34;4991773;28;103561;-55
2022/06/06 10:31:33;;;;;;;3.50;3.20;;;;;;;19.27;68.75;101121.59;4993883;28;102442;-55
2022/06/06 10:34:22;;;;;;;3.60;3.30;;;;;;;19.25;68.75;101113.63;4981476;28;102769;-55
2022/06/06 10:37:26;;;;;;;4.57;3.50;;;;;;;19.24;68.68;101112.03;4985910;28;102644;-55
2022/06/06 10:40:05;;;;;;;3.78;3.45;;;;;;;19.24;68.59;101114.78;4988240;28;107982;-55
2022/06/06 10:42:50;;;;;;;;;;;;;;;19.26;68.43;101114.44;4984497;28;102388;-55
2022/06/06 10:45:25;;;;;;;3.30;3.00;;;;;;;19.27;68.77;101116.09;4986255;28;102203;-55
2022/06/06 10:48:29;;;;;;;3.50;3.00;;;;;;;19.26;68.41;101123.56;4989642;28;102171;-55
2022/06/06 10:51:42;;;;;;;6.10;2.75;;;;;;;19.28;68.38;101121.28;4987126;28;103922;-55
2022/06/06 10:54:36;;;;;;;3.08;2.78;;;;;;;19.30;68.54;101115.47;4993797;28;102452;-56
2022/06/06 10:57:48;;;;;;;3.25;2.92;;;;;;;19.30;68.72;101116.25;4987293;28;102643;-55
2022/06/06 11:00:22;;;;;;;2.88;2.67;;;;;;;19.29;68.51;101109.09;4979118;28;102487;-55
2022/06/06 11:03:25;;;;;;;3.67;3.00;;;;;;;19.26;68.49;101109.75;4982549;28;104092;-55
2022/06/06 11:06:30;;;;;;;3.40;3.17;;;;;;;19.27;68.33;101119.66;4961911;28;103011;-54
2022/06/06 11:09:38;;;;;;;2.85;2.50;;;;;;;19.30;68.57;101107.97;4974547;28;103265;-55
2022/06/06 11:12:38;;;;;;;3.38;3.08;;;;;;;19.28;68.28;101101.97;4977409;28;102744;-55
2022/06/06 11:15:05;;;;;;;3.47;3.13;;;;;;;19.28;68.01;101096.44;4983876;28;103937;-55
2022/06/06 11:18:03;;;;;;;3.20;2.90;;;;;;;19.26;68.11;101098.72;4993326;28;102101;-54
2022/06/06 11:21:03;;;;;;;3.17;2.88;;;;;;;19.28;68.38;101101.16;4974545;28;102576;-55
2022/06/06 11:23:35;;;;;;;2.80;2.60;;;;;;;19.28;68.16;101095.63;4983213;28;102557;-55
2022/06/06 11:26:40;;;;;;;3.20;3.00;;;;;;;19.27;67.96;101105.88;4974148;28;104017;-55
2022/06/06 11:29:36;;;;;;;3.40;3.10;;;;;;;19.26;67.72;101104.25;4987372;28;102373;-55
2022/06/06 11:32:27;;;;;;;2.95;2.75;;;;;;;19.27;67.67;101100.34;4993133;28;102422;-55
2022/06/06 11:35:19;;;;;;;3.25;3.03;;;;;;;19.26;67.83;101093.22;4988497;28;102883;-55
2022/06/06 11:38:23;;;;;;;3.42;3.20;;;;;;;19.26;68.17;101104.25;4985475;28;107946;-55
2022/06/06 11:41:18;;;;;;;3.88;3.08;;;;;;;19.26;67.80;101087.69;4985864;28;102275;-55
2022/06/06 11:44:10;;;;;;;3.90;2.92;;;;;;;19.27;68.02;101083.78;4987424;28;102874;-55
2022/06/06 11:47:09;;;;;;;3.03;2.78;;;;;;;19.27;67.78;101081.03;4972335;28;102668;-55
2022/06/06 11:50:21;;;;;;;3.20;3.00;;;;;;;19.28;67.97;101081.84;4984586;28;103857;-55
2022/06/06 11:53:21;;;;;;;3.42;3.15;;;;;;;19.27;67.68;101083.78;4967855;28;102832;-55
2022/06/06 11:56:04;;;;;;;3.35;3.15;;;;;;;19.27;67.96;101085.75;4988850;28;103874;-55
2022/06/06 11:59:06;;;;;;;2.83;2.60;;;;;;;19.28;67.73;101079.88;4983091;28;103057;-57
2022/06/06 12:02:10;;;;;;;3.20;3.00;;;;;;;19.30;67.65;101094.19;4985611;28;104553;-55
2022/06/06 12:05:06;;;;;;;3.13;2.92;;;;;;;19.28;67.78;101096.44;4981105;28;102154;-55
2022/06/06 12:08:05;;;;;;;3.05;2.85;;;;;;;19.26;67.62;101093.22;4987206;28;102264;-55
2022/06/06 12:10:34;;;;;;;;;;;;;;;19.25;67.31;101086.03;4987570;28;102521;-55
2022/06/06 12:13:29;;;;;;;3.00;2.80;;;;;;;19.25;67.35;101086.03;4990320;28;103984;-55
2022/06/06 12:16:31;;;;;;;3.33;3.08;;;;;;;19.24;67.52;101084.41;4994198;28;102029;-55
2022/06/06 12:19:19;;;;;;;3.05;2.80;;;;;;;19.26;67.66;101084.94;4993743;28;102145;-55
2022/06/06 12:22:11;;;;;;;3.08;2.88;;;;;;;19.26;67.32;101076.66;4984548;28;102066;-55
2022/06/06 12:24:54;;;;;;;3.53;3.22;;;;;;;19.26;67.84;101078.56;4974065;28;103837;-55
2022/06/06 12:27:30;;;;;;;3.15;2.85;;;;;;;19.25;67.55;101075.00;4974378;28;102000;-55
2022/06/06 12:30:30;;;;;;;3.00;2.80;;;;;;;19.26;67.58;101065.63;4975083;28;102098;-55
2022/06/06 12:33:02;;;;;;;3.60;3.30;;;;;;;19.26;67.97;101060.09;4996198;28;102552;-55
2022/06/06 12:35:44;;;;;;;3.25;3.05;;;;;;;19.25;67.73;101052.94;4993452;28;103914;-55
2022/06/06 12:38:22;;;;;;;3.15;2.90;;;;;;;19.24;67.42;101043.03;4993728;28;102430;-56
2022/06/06 12:41:01;;;;;;;4.05;3.05;;;;;;;19.24;67.58;101045.78;4992185;28;102135;-55
2022/06/06 12:43:49;;;;;;;3.33;3.03;;;;;;;19.25;67.58;101041.91;4979534;28;102482;-55
2022/06/06 12:46:43;;;;;;;3.85;3.00;;;;;;;19.24;67.85;101043.03;4990305;28;103868;-55